Time;durP1;ratioP1;P1;durP2;ratioP2;P2;SDS_P1;SDS_P2;PMS_P1;PMS_P2;Temp;Humidity;BMP_temperature;BMP_pressure;BME280_temperature;BME280_humidity;BME280_pressure;Samples;Min_cycle;Max_cycle;Signal;HPM_P1;HPM_P2
2023/06/22 00:00:23;;;;;;;10.02;5.37;;;;;;;21.03;100.00;98937.59;4484304;31;20402;-68
2023/06/22 00:02:50;;;;;;;12.05;4.93;;;;;;;21.06;100.00;98939.00;4484408;32;20156;-68
2023/06/22 00:05:17;;;;;;;10.25;4.87;;;;;;;21.13;100.00;98968.34;4484233;31;20084;-68
2023/06/22 00:07:44;;;;;;;13.07;4.95;;;;;;;21.18;100.00;98988.06;4484646;31;20159;-68
2023/06/22 00:10:12;;;;;;;10.35;5.00;;;;;;;21.19;100.00;98987.00;4475552;31;20145;-68
2023/06/22 00:12:39;;;;;;;9.77;5.18;;;;;;;21.16;100.00;98989.25;4470544;32;20156;-68
2023/06/22 00:15:06;;;;;;;11.48;5.30;;;;;;;21.15;100.00;98992.94;4484160;32;20714;-68
2023/06/22 00:17:34;;;;;;;13.75;5.93;;;;;;;21.13;100.00;98984.34;4484435;31;20130;-68
2023/06/22 00:20:01;;;;;;;13.00;5.35;;;;;;;21.04;100.00;98970.38;4483937;31;20076;-68
2023/06/22 00:22:28;;;;;;;14.00;5.70;;;;;;;20.97;100.00;98967.69;4484080;31;20461;-68
2023/06/22 00:24:56;;;;;;;9.52;5.55;;;;;;;20.94;100.00;98965.44;4484043;31;20111;-68
2023/06/22 00:27:24;;;;;;;13.02;5.68;;;;;;;20.91;100.00;98960.50;4484072;31;20123;-68
2023/06/22 00:29:51;;;;;;;18.62;6.18;;;;;;;20.88;100.00;98963.56;4483944;31;20092;-67
2023/06/22 00:32:19;;;;;;;16.00;5.95;;;;;;;20.92;100.00;98968.28;4483739;32;20123;-68
2023/06/22 00:34:46;;;;;;;17.40;6.68;;;;;;;20.87;100.00;98959.25;4484179;31;20135;-68
2023/06/22 00:37:14;;;;;;;14.43;5.60;;;;;;;20.81;100.00;98965.37;4484048;32;20119;-68
2023/06/22 00:39:42;;;;;;;14.35;5.70;;;;;;;20.81;100.00;98971.50;4483804;31;20108;-68
2023/06/22 00:42:10;;;;;;;11.73;4.85;;;;;;;20.64;100.00;98964.87;4483725;31;20549;-68
2023/06/22 00:44:38;;;;;;;16.33;6.07;;;;;;;20.54;100.00;98968.69;4483675;32;20525;-67
2023/06/22 00:47:06;;;;;;;15.82;5.50;;;;;;;20.53;100.00;98974.22;4483714;31;20096;-67
2023/06/22 00:49:34;;;;;;;11.98;5.03;;;;;;;20.44;100.00;98965.59;4482521;32;20590;-67
2023/06/22 00:52:01;;;;;;;16.02;5.37;;;;;;;20.43;100.00;98966.59;4483710;31;20114;-68
2023/06/22 00:54:29;;;;;;;9.73;5.53;;;;;;;20.39;100.00;98962.66;4483649;31;20443;-67
2023/06/22 00:56:57;;;;;;;13.18;5.72;;;;;;;20.38;100.00;98961.88;4484328;31;20115;-67
2023/06/22 00:59:26;;;;;;;13.00;5.70;;;;;;;20.37;100.00;98970.84;4486040;31;20137;-67
2023/06/22 01:01:53;;;;;;;8.73;4.95;;;;;;;20.31;100.00;98968.97;4485706;31;20108;-67
2023/06/22 01:04:25;;;;;;;10.77;5.10;;;;;;;20.26;100.00;98966.09;4486034;31;20092;-67
2023/06/22 01:07:18;;;;;;;7.62;5.10;;;;;;;20.27;100.00;98953.59;4484668;32;20127;-67
2023/06/22 01:10:33;;;;;;;14.55;6.90;;;;;;;20.25;100.00;98959.13;4480453;31;20100;-67
2023/06/22 01:13:31;;;;;;;12.18;5.72;;;;;;;20.23;100.00;98958.50;4472638;32;20096;-67
2023/06/22 01:16:21;;;;;;;12.65;5.60;;;;;;;20.26;100.00;98951.94;4436738;32;20148;-67
2023/06/22 01:18:51;;;;;;;10.02;5.53;;;;;;;20.27;100.00;98954.41;4437294;32;20546;-67
2023/06/22 01:21:19;;;;;;;14.57;6.50;;;;;;;20.25;100.00;98953.78;4423681;32;20123;-67
2023/06/22 01:23:50;;;;;;;9.70;5.53;;;;;;;20.29;100.00;98944.41;4436658;32;20093;-67
2023/06/22 01:26:54;;;;;;;17.37;6.28;;;;;;;20.27;100.00;98943.78;4424087;32;20507;-67
2023/06/22 01:29:21;;;;;;;15.60;6.37;;;;;;;20.29;100.00;98948.94;4436644;32;20101;-67
2023/06/22 01:31:50;;;;;;;10.70;5.80;;;;;;;20.30;100.00;98938.09;4423793;32;20123;-67
2023/06/22 01:34:17;;;;;;;13.18;5.82;;;;;;;20.32;100.00;98944.03;4423823;32;20093;-67
2023/06/22 01:36:45;;;;;;;13.20;6.15;;;;;;;20.31;100.00;98944.22;4423421;32;20534;-67
2023/06/22 01:39:13;;;;;;;12.63;6.50;;;;;;;20.33;100.00;98942.16;4423880;32;20152;-68
2023/06/22 01:41:41;;;;;;;13.13;6.00;;;;;;;20.32;100.00;98936.03;4436303;32;20093;-67
2023/06/22 01:44:09;;;;;;;10.02;6.90;;;;;;;20.33;100.00;98939.50;4436459;32;20816;-67
2023/06/22 01:46:37;;;;;;;13.75;6.50;;;;;;;20.33;100.00;98936.84;4436420;32;20698;-67
2023/06/22 01:49:04;;;;;;;13.60;6.55;;;;;;;20.33;100.00;98932.38;4424091;32;20277;-67
2023/06/22 01:51:32;;;;;;;14.00;6.90;;;;;;;20.27;100.00;98933.13;4436367;32;20157;-67
2023/06/22 01:54:00;;;;;;;13.18;6.25;;;;;;;20.18;100.00;98939.63;4477984;32;20394;-67
2023/06/22 01:56:28;;;;;;;13.30;6.55;;;;;;;20.19;100.00;98935.97;4485429;31;20163;-67
2023/06/22 01:59:10;;;;;;;10.40;6.40;;;;;;;20.18;100.00;98943.13;4485919;31;20143;-67
2023/06/22 02:02:01;;;;;;;13.90;6.47;;;;;;;20.17;100.00;98945.97;4484279;32;20382;-67
2023/06/22 02:04:35;;;;;;;12.60;6.55;;;;;;;20.20;100.00;98953.56;4484326;32;20183;-67
2023/06/22 02:07:06;;;;;;;12.93;6.12;;;;;;;20.17;100.00;98951.31;4485807;31;20497;-67
2023/06/22 02:09:34;;;;;;;15.02;6.62;;;;;;;20.16;100.00;98947.81;4479978;32;20108;-67
2023/06/22 02:12:02;;;;;;;15.75;6.65;;;;;;;20.15;100.00;98948.00;4468501;32;20140;-67
2023/06/22 02:14:29;;;;;;;10.35;6.03;;;;;;;20.14;100.00;98943.72;4482547;32;20156;-67
2023/06/22 02:16:59;;;;;;;19.08;6.93;;;;;;;20.11;100.00;98944.09;4485362;31;20155;-67
2023/06/22 02:19:27;;;;;;;15.70;6.93;;;;;;;20.09;100.00;98943.44;4485466;31;20112;-67
2023/06/22 02:21:54;;;;;;;10.05;6.53;;;;;;;20.09;100.00;98946.12;4485116;31;20122;-67
2023/06/22 02:24:23;;;;;;;18.85;7.37;;;;;;;20.09;100.00;98952.28;4485334;32;20593;-67
2023/06/22 02:26:50;;;;;;;15.85;6.97;;;;;;;20.14;100.00;98949.03;4485334;31;20144;-67
2023/06/22 02:29:18;;;;;;;13.40;7.10;;;;;;;20.10;100.00;98961.06;4485259;31;20119;-67
2023/06/22 02:31:45;;;;;;;12.32;7.20;;;;;;;20.13;100.00;98958.00;4485290;31;20608;-67
2023/06/22 02:34:17;;;;;;;13.18;7.18;;;;;;;20.11;100.00;98960.06;4484027;32;20092;-67
2023/06/22 02:36:51;;;;;;;14.35;6.45;;;;;;;20.12;100.00;98964.34;4485429;31;20144;-67
2023/06/22 02:39:23;;;;;;;13.30;6.80;;;;;;;20.08;100.00;98971.09;4485408;31;20159;-67
2023/06/22 02:41:52;;;;;;;11.95;7.18;;;;;;;20.09;100.00;98978.03;4485232;31;20556;-67
2023/06/22 02:44:21;;;;;;;11.73;6.22;;;;;;;20.02;100.00;98976.16;4485435;31;20145;-67
2023/06/22 02:46:49;;;;;;;11.70;6.60;;;;;;;19.98;100.00;98982.84;4485237;31;20509;-67
2023/06/22 02:49:16;;;;;;;12.02;6.18;;;;;;;19.92;100.00;98978.31;4485300;31;20544;-67
2023/06/22 02:51:48;;;;;;;11.57;6.40;;;;;;;19.94;100.00;98981.63;4485355;31;20159;-67
2023/06/22 02:54:16;;;;;;;14.02;6.70;;;;;;;19.98;100.00;98977.53;4485234;31;20466;-67
2023/06/22 02:56:44;;;;;;;16.35;6.95;;;;;;;20.06;100.00;98979.25;4485404;31;20122;-67
2023/06/22 02:59:11;;;;;;;14.73;6.20;;;;;;;20.08;100.00;98981.72;4485167;31;20573;-67
2023/06/22 03:01:42;;;;;;;10.55;6.43;;;;;;;20.09;100.00;98976.22;4485142;31;20092;-67
2023/06/22 03:04:10;;;;;;;19.10;6.50;;;;;;;20.09;100.00;98981.53;4485453;31;20084;-67
2023/06/22 03:06:40;;;;;;;9.32;5.78;;;;;;;20.07;100.00;98972.91;4485120;31;20089;-67
2023/06/22 03:09:08;;;;;;;13.77;6.03;;;;;;;19.98;100.00;98966.09;4483717;31;20152;-67
2023/06/22 03:11:35;;;;;;;11.10;5.78;;;;;;;19.99;100.00;98973.88;4469745;32;20164;-67
2023/06/22 03:14:03;;;;;;;11.68;5.50;;;;;;;20.05;100.00;98969.63;4480323;32;20628;-67
2023/06/22 03:16:30;;;;;;;8.48;4.80;;;;;;;19.98;100.00;98966.09;4485157;32;20126;-67
2023/06/22 03:18:58;;;;;;;12.37;6.20;;;;;;;19.96;100.00;98974.25;4484890;31;20096;-67
2023/06/22 03:21:28;;;;;;;13.20;5.50;;;;;;;19.92;100.00;98978.31;4484523;31;20164;-67
2023/06/22 03:23:55;;;;;;;12.35;4.57;;;;;;;19.91;100.00;98975.84;4484761;31;20096;-67
2023/06/22 03:26:26;;;;;;;13.48;5.72;;;;;;;19.97;100.00;98965.28;4484914;31;20096;-67
2023/06/22 03:28:54;;;;;;;10.57;4.97;;;;;;;20.03;100.00;98966.34;4483333;32;20113;-67
2023/06/22 03:31:21;;;;;;;11.70;4.75;;;;;;;20.13;100.00;98966.81;4484834;31;20088;-67
2023/06/22 03:33:50;;;;;;;10.20;4.22;;;;;;;20.22;100.00;98964.81;4483705;32;20092;-67
2023/06/22 03:36:20;;;;;;;12.73;4.57;;;;;;;20.29;100.00;98964.87;4484847;31;20072;-67
2023/06/22 03:38:49;;;;;;;10.27;4.20;;;;;;;20.42;100.00;98969.44;4484980;31;20544;-67
2023/06/22 03:41:17;;;;;;;11.60;4.82;;;;;;;20.47;100.00;98964.34;4484838;31;20123;-67
2023/06/22 03:43:46;;;;;;;15.43;4.75;;;;;;;20.57;100.00;98964.81;4483638;32;20124;-67
2023/06/22 03:46:14;;;;;;;6.03;4.05;;;;;;;20.67;100.00;98967.97;4484761;31;20084;-67
2023/06/22 03:48:43;;;;;;;13.20;5.43;;;;;;;20.84;100.00;98967.66;4484664;31;20109;-67
2023/06/22 03:51:10;;;;;;;10.77;4.95;;;;;;;20.89;100.00;98963.38;4484876;32;20119;-67
2023/06/22 03:53:37;;;;;;;10.48;4.28;;;;;;;21.00;100.00;98969.97;4484606;31;20177;-67
2023/06/22 03:56:04;;;;;;;10.15;4.30;;;;;;;21.04;100.00;98967.72;4484460;31;20163;-67
2023/06/22 03:58:32;;;;;;;11.20;4.72;;;;;;;21.16;100.00;98968.75;4484287;32;20139;-67
2023/06/22 04:01:00;;;;;;;10.38;4.93;;;;;;;21.24;100.00;98975.75;4484356;31;20148;-67
2023/06/22 04:03:27;;;;;;;13.43;5.12;;;;;;;21.25;100.00;98978.22;4484688;31;20156;-67
2023/06/22 04:05:55;;;;;;;9.80;5.07;;;;;;;21.39;100.00;98972.91;4484274;31;20080;-67
2023/06/22 04:08:22;;;;;;;10.27;5.10;;;;;;;21.49;100.00;98978.69;4484154;31;20150;-66
2023/06/22 04:10:50;;;;;;;11.60;5.12;;;;;;;21.64;100.00;98975.06;4471417;31;20177;-67
2023/06/22 04:13:17;;;;;;;12.85;5.25;;;;;;;21.71;100.00;98974.03;4474583;32;20097;-67
2023/06/22 04:15:44;;;;;;;16.23;5.30;;;;;;;21.72;100.00;98972.97;4484071;32;20122;-67
2023/06/22 04:18:13;;;;;;;13.60;4.40;;;;;;;21.92;100.00;98972.16;4483990;31;20466;-67
2023/06/22 04:20:40;;;;;;;9.27;4.35;;;;;;;21.99;100.00;98970.31;4484086;31;20438;-67
2023/06/22 04:23:07;;;;;;;9.48;4.45;;;;;;;22.18;100.00;98974.00;4484093;32;20105;-69
2023/06/22 04:25:35;;;;;;;12.15;5.57;;;;;;;22.32;100.00;98974.84;4483861;31;20105;-69
2023/06/22 04:28:04;;;;;;;10.95;4.07;;;;;;;22.53;100.00;98968.41;4483906;31;20556;-69
2023/06/22 04:30:32;;;;;;;10.85;4.95;;;;;;;22.63;100.00;98963.44;4484124;31;20180;-69
2023/06/22 04:33:00;;;;;;;14.65;4.80;;;;;;;22.73;100.00;98973.69;4485498;31;20088;-67
2023/06/22 04:35:28;;;;;;;13.23;4.97;;;;;;;22.91;100.00;98966.81;4486088;31;20485;-67
2023/06/22 04:37:58;;;;;;;11.68;5.45;;;;;;;22.98;100.00;98976.47;4486320;31;20085;-67
2023/06/22 04:40:25;;;;;;;11.30;4.95;;;;;;;23.14;100.00;98977.84;4486107;31;20096;-67
2023/06/22 04:42:53;;;;;;;13.70;5.53;;;;;;;23.21;100.00;98985.84;4486057;31;20408;-67
2023/06/22 04:45:21;;;;;;;8.55;4.65;;;;;;;23.27;100.00;98990.34;4485738;31;20525;-67
2023/06/22 04:47:49;;;;;;;11.23;5.18;;;;;;;23.43;100.00;98989.00;4485255;32;20100;-67
2023/06/22 04:50:17;;;;;;;17.33;5.20;;;;;;;23.58;100.00;98998.56;4485879;31;20096;-67
2023/06/22 04:52:45;;;;;;;11.95;5.12;;;;;;;23.67;100.00;99003.44;4486127;31;20100;-67
2023/06/22 04:55:18;;;;;;;14.65;5.10;;;;;;;23.76;100.00;99004.00;4486032;31;20089;-67
2023/06/22 04:57:49;;;;;;;11.52;5.55;;;;;;;23.52;100.00;99011.75;4485983;32;20107;-67
2023/06/22 05:00:19;;;;;;;9.10;4.87;;;;;;;23.46;100.00;99009.94;4477278;31;20105;-67
2023/06/22 05:02:46;;;;;;;12.40;4.43;;;;;;;23.30;100.00;99010.44;4470964;32;20100;-67
2023/06/22 05:05:15;;;;;;;8.65;4.55;;;;;;;23.06;100.00;99015.47;4479386;32;20121;-67
2023/06/22 05:07:44;;;;;;;10.57;4.55;;;;;;;23.08;100.00;99017.94;4484035;31;20100;-66
2023/06/22 05:10:12;;;;;;;7.95;4.57;;;;;;;23.03;100.00;99023.94;4482507;31;20161;-67
2023/06/22 05:12:40;;;;;;;18.02;4.68;;;;;;;23.11;100.00;99023.69;4483821;31;20096;-67
2023/06/22 05:15:08;;;;;;;12.25;4.47;;;;;;;23.03;100.00;99026.59;4485482;32;20571;-67
2023/06/22 05:17:36;;;;;;;11.60;4.28;;;;;;;23.04;100.00;99036.22;4484025;31;20116;-65
2023/06/22 05:20:06;;;;;;;11.80;5.03;;;;;;;23.16;100.00;99034.56;4482741;32;20096;-67
2023/06/22 05:22:33;;;;;;;14.32;5.55;;;;;;;23.39;100.00;99030.53;4481791;31;20154;-66
2023/06/22 05:25:01;;;;;;;8.80;3.97;;;;;;;23.70;100.00;99042.31;4475966;32;20088;-67
2023/06/22 05:27:28;;;;;;;9.93;4.55;;;;;;;23.87;100.00;99037.28;4471709;32;20484;-67
2023/06/22 05:29:55;;;;;;;11.43;4.28;;;;;;;24.19;100.00;99046.06;4478627;32;20096;-67
2023/06/22 05:32:22;;;;;;;10.70;4.87;;;;;;;24.39;100.00;99053.94;4481805;31;20088;-67
2023/06/22 05:34:49;;;;;;;8.45;5.20;;;;;;;24.51;100.00;99053.22;4481759;31;20139;-67
2023/06/22 05:37:17;;;;;;;14.15;4.75;;;;;;;24.74;100.00;99056.09;4483834;32;20522;-67
2023/06/22 05:39:44;;;;;;;12.65;5.07;;;;;;;24.84;100.00;99060.12;4468883;32;20112;-67
2023/06/22 05:42:11;;;;;;;9.07;5.00;;;;;;;24.66;100.00;99060.94;4479070;32;20108;-67
2023/06/22 05:44:40;;;;;;;9.88;4.18;;;;;;;24.69;100.00;99066.66;4484696;31;20527;-67
2023/06/22 05:47:07;;;;;;;6.35;4.07;;;;;;;24.74;100.00;99068.66;4484153;31;20108;-67
2023/06/22 05:49:34;;;;;;;8.68;4.35;;;;;;;24.92;100.00;99063.31;4484870;31;20216;-67
2023/06/22 05:52:02;;;;;;;9.40;3.92;;;;;;;25.03;100.00;99069.00;4483143;32;20122;-67
2023/06/22 05:54:29;;;;;;;14.98;7.35;;;;;;;24.87;100.00;99068.53;4481960;32;20465;-67
2023/06/22 05:56:56;;;;;;;9.18;3.90;;;;;;;25.02;100.00;99065.47;4483300;32;20104;-67
2023/06/22 05:59:24;;;;;;;8.88;3.58;;;;;;;25.20;100.00;99061.97;4474455;32;20088;-67
2023/06/22 06:01:51;;;;;;;10.77;4.12;;;;;;;25.13;100.00;99062.06;4484557;31;20159;-67
2023/06/22 06:04:19;;;;;;;12.57;3.95;;;;;;;25.18;100.00;99061.38;4483921;32;20149;-67
2023/06/22 06:06:48;;;;;;;9.63;4.10;;;;;;;25.12;100.00;99067.66;4483850;31;20139;-67
2023/06/22 06:09:15;;;;;;;11.02;4.28;;;;;;;25.23;100.00;99066.88;4481338;31;20152;-67
2023/06/22 06:11:42;;;;;;;13.32;4.30;;;;;;;25.10;100.00;99067.03;4484392;31;20100;-67
2023/06/22 06:14:09;;;;;;;9.60;3.70;;;;;;;25.14;100.00;99058.31;4473754;31;20092;-67
2023/06/22 06:16:36;;;;;;;7.82;3.65;;;;;;;25.31;100.00;99055.03;4481670;32;20093;-67
2023/06/22 06:19:04;;;;;;;8.43;3.87;;;;;;;25.36;100.00;99060.56;4479435;32;20121;-67
2023/06/22 06:21:31;;;;;;;9.10;4.00;;;;;;;25.24;100.00;99057.78;4482176;32;20164;-67
2023/06/22 06:23:58;;;;;;;13.27;3.53;;;;;;;25.56;100.00;99062.97;4481810;32;20171;-67
2023/06/22 06:26:29;;;;;;;7.37;3.33;;;;;;;25.64;95.61;99065.31;4483118;31;20104;-67
2023/06/22 06:28:57;;;;;;;8.68;2.87;;;;;;;25.93;93.89;99060.16;4482417;31;20156;-67
2023/06/22 06:31:24;;;;;;;10.95;3.00;;;;;;;26.18;87.02;99065.34;4479368;31;20096;-67
2023/06/22 06:33:53;;;;;;;6.15;3.05;;;;;;;26.34;83.95;99057.66;4474260;32;20426;-67
2023/06/22 06:36:20;;;;;;;7.03;3.70;;;;;;;26.42;84.44;99064.53;4485354;31;20480;-67
2023/06/22 06:38:48;;;;;;;8.23;4.15;;;;;;;26.77;82.54;99059.19;4480445;31;20112;-67
2023/06/22 06:41:16;;;;;;;6.85;3.70;;;;;;;27.09;83.84;99059.59;4484948;31;20175;-67
2023/06/22 06:43:43;;;;;;;7.93;3.78;;;;;;;27.19;80.03;99063.53;4485410;31;20092;-67
2023/06/22 06:46:10;;;;;;;8.40;4.22;;;;;;;27.37;81.68;99052.59;4483126;31;20143;-67
2023/06/22 06:48:38;;;;;;;7.87;4.18;;;;;;;27.44;82.21;99053.28;4474647;32;20123;-67
2023/06/22 06:51:05;;;;;;;10.88;4.45;;;;;;;27.53;81.47;99048.34;4469516;32;20088;-67
2023/06/22 06:53:32;;;;;;;8.25;4.28;;;;;;;27.57;85.60;99054.03;4480851;32;20469;-67
2023/06/22 06:55:59;;;;;;;11.88;4.90;;;;;;;27.65;85.77;99052.84;4483692;32;20119;-67
2023/06/22 06:58:27;;;;;;;12.00;4.15;;;;;;;27.63;91.73;99050.38;4478815;31;20568;-67
2023/06/22 07:00:54;;;;;;;8.90;4.65;;;;;;;27.87;91.03;99055.66;4478109;32;20093;-67
2023/06/22 07:03:22;;;;;;;8.00;5.75;;;;;;;28.00;93.14;99044.59;4478838;32;20096;-67
2023/06/22 07:05:49;;;;;;;7.18;4.65;;;;;;;28.06;90.22;99042.81;4479878;31;20092;-66
2023/06/22 07:08:17;;;;;;;11.30;5.60;;;;;;;28.25;92.33;99049.56;4480615;32;20137;-67
2023/06/22 07:10:44;;;;;;;10.77;6.45;;;;;;;28.29;82.55;99048.00;4482260;32;20541;-67
2023/06/22 07:13:11;;;;;;;10.38;5.68;;;;;;;28.30;83.29;99043.44;4480849;31;20175;-67
2023/06/22 07:15:38;;;;;;;8.40;6.15;;;;;;;28.39;82.52;99039.28;4480752;31;20437;-67
2023/06/22 07:18:05;;;;;;;9.15;5.18;;;;;;;28.57;79.75;99038.19;4471547;32;20126;-67
2023/06/22 07:20:33;;;;;;;8.98;5.43;;;;;;;28.62;79.98;99042.84;4473885;31;20157;-67
2023/06/22 07:23:00;;;;;;;12.48;5.80;;;;;;;28.61;82.50;99039.31;4470914;32;20083;-67
2023/06/22 07:25:27;;;;;;;8.93;5.80;;;;;;;28.76;81.91;99040.59;4475649;32;20152;-67
2023/06/22 07:27:58;;;;;;;10.57;6.12;;;;;;;28.87;79.96;99042.34;4476757;32;20111;-67
2023/06/22 07:30:26;;;;;;;8.75;5.90;;;;;;;29.02;84.47;99044.41;4480938;32;20171;-67
2023/06/22 07:32:55;;;;;;;9.55;5.80;;;;;;;29.12;81.00;99043.75;4482698;31;20555;-67
2023/06/22 07:35:22;;;;;;;14.85;8.52;;;;;;;28.98;76.38;99044.12;4481615;31;20169;-67
2023/06/22 07:37:49;;;;;;;7.00;6.05;;;;;;;29.10;75.63;99045.84;4475458;32;20145;-67
2023/06/22 07:40:16;;;;;;;12.65;6.82;;;;;;;29.28;79.40;99044.75;4481156;32;20537;-67
2023/06/22 07:42:44;;;;;;;10.10;6.95;;;;;;;28.94;80.23;99042.97;4479791;31;20104;-67
2023/06/22 07:45:11;;;;;;;11.18;6.50;;;;;;;29.22;83.04;99048.47;4483111;32;20514;-67
2023/06/22 07:47:38;;;;;;;7.93;5.72;;;;;;;29.23;79.13;99040.09;4475332;32;20108;-67
2023/06/22 07:50:06;;;;;;;9.68;6.55;;;;;;;29.31;78.41;99042.38;4474532;32;20117;-67
2023/06/22 07:52:34;;;;;;;7.25;6.18;;;;;;;29.44;76.23;99037.62;4483621;31;20127;-67
2023/06/22 07:55:02;;;;;;;10.68;6.20;;;;;;;29.43;79.68;99044.91;4480667;31;20168;-67
2023/06/22 07:57:33;;;;;;;10.77;7.53;;;;;;;29.44;72.36;99043.84;4481781;31;20160;-67
2023/06/22 08:00:01;;;;;;;12.40;7.22;;;;;;;29.39;74.25;99043.81;4481801;31;20446;-67
2023/06/22 08:02:39;;;;;;;14.00;6.62;;;;;;;29.52;72.99;99034.47;4483006;31;20079;-68
2023/06/22 08:05:09;;;;;;;13.60;6.85;;;;;;;29.31;79.24;99036.97;4482846;32;20104;-67
2023/06/22 08:07:49;;;;;;;8.77;7.03;;;;;;;29.12;70.87;99032.94;4482772;31;20118;-67
2023/06/22 08:10:17;;;;;;;9.88;7.03;;;;;;;29.34;73.55;99031.06;4484540;32;20590;-67
2023/06/22 08:12:44;;;;;;;9.82;6.70;;;;;;;29.49;73.98;99037.69;4486082;31;20153;-67
2023/06/22 08:15:12;;;;;;;12.32;6.97;;;;;;;29.48;70.97;99042.28;4477883;31;20173;-67
2023/06/22 08:17:39;;;;;;;13.73;7.30;;;;;;;29.69;72.26;99037.88;4475350;31;20160;-67
2023/06/22 08:20:14;;;;;;;10.02;6.72;;;;;;;29.63;69.98;99044.31;4483092;32;20089;-67
2023/06/22 08:22:42;;;;;;;9.65;6.87;;;;;;;29.57;69.58;99034.53;4485236;32;20476;-67
2023/06/22 08:25:10;;;;;;;11.20;7.32;;;;;;;29.06;70.30;99036.66;4477583;31;20084;-67
2023/06/22 08:27:37;;;;;;;15.00;7.53;;;;;;;28.97;72.01;99036.28;4480779;32;20156;-67
2023/06/22 08:30:06;;;;;;;10.57;7.28;;;;;;;28.94;70.77;99036.78;4473250;31;20475;-67
2023/06/22 08:32:33;;;;;;;10.48;7.32;;;;;;;29.21;77.76;99031.47;4477675;31;20488;-66
2023/06/22 08:35:01;;;;;;;12.73;7.72;;;;;;;29.47;78.88;99024.44;4479756;32;20093;-67
2023/06/22 08:37:31;;;;;;;12.90;8.18;;;;;;;29.37;73.85;99027.03;4472541;32;20126;-67
2023/06/22 08:39:59;;;;;;;12.77;7.55;;;;;;;29.52;78.54;99026.37;4477079;32;20124;-67
2023/06/22 08:42:27;;;;;;;9.75;7.00;;;;;;;29.55;74.45;99021.28;4472553;32;20172;-67
2023/06/22 08:44:55;;;;;;;13.88;7.82;;;;;;;29.79;71.21;99023.63;4477719;32;20108;-67
2023/06/22 08:47:23;;;;;;;12.52;8.60;;;;;;;30.12;74.46;99018.25;4476490;32;20175;-67
2023/06/22 08:49:50;;;;;;;10.73;7.30;;;;;;;30.17;72.07;99018.28;4482897;32;20084;-67
2023/06/22 08:52:19;;;;;;;12.27;7.97;;;;;;;30.36;70.94;99018.69;4485873;31;20134;-67
2023/06/22 08:54:47;;;;;;;24.05;8.25;;;;;;;30.33;70.75;99017.31;4483142;32;20161;-67
2023/06/22 08:57:14;;;;;;;13.05;8.52;;;;;;;29.95;76.80;99018.37;4474963;32;20104;-67
2023/06/22 08:59:42;;;;;;;10.73;7.90;;;;;;;30.07;72.80;99008.22;4479990;32;20092;-67
2023/06/22 09:02:09;;;;;;;16.98;10.00;;;;;;;30.30;72.31;99009.72;4482497;31;20088;-67
2023/06/22 09:04:36;;;;;;;13.30;8.50;;;;;;;30.30;76.62;99004.31;4482653;32;20525;-67
2023/06/22 09:07:04;;;;;;;13.70;8.77;;;;;;;30.27;72.29;99013.75;4482066;32;20164;-67
2023/06/22 09:09:32;;;;;;;14.27;8.85;;;;;;;30.50;70.36;99006.34;4482628;32;20481;-67
2023/06/22 09:11:59;;;;;;;10.95;9.05;;;;;;;30.60;71.79;99005.59;4484176;31;20480;-67
2023/06/22 09:14:26;;;;;;;12.30;8.57;;;;;;;30.78;76.62;99007.00;4480888;32;20164;-67
2023/06/22 09:16:53;;;;;;;11.23;9.50;;;;;;;30.88;68.93;99004.34;4475975;31;20145;-67
2023/06/22 09:19:21;;;;;;;17.25;9.95;;;;;;;30.54;74.33;99006.62;4478303;32;21000;-67
2023/06/22 09:21:48;;;;;;;10.32;8.77;;;;;;;30.22;75.36;99002.94;4479322;32;20088;-67
2023/06/22 09:24:15;;;;;;;10.38;9.32;;;;;;;30.12;74.22;98997.44;4482902;31;20088;-67
2023/06/22 09:26:42;;;;;;;14.57;9.48;;;;;;;30.31;75.49;98999.72;4483402;31;20819;-67
2023/06/22 09:29:09;;;;;;;15.88;9.63;;;;;;;30.39;74.11;99001.94;4483565;31;20544;-67
2023/06/22 09:31:37;;;;;;;13.85;9.70;;;;;;;30.42;71.35;99002.25;4477829;32;20164;-67
2023/06/22 09:34:04;;;;;;;16.08;9.38;;;;;;;30.81;74.34;98998.34;4475108;32;20157;-67
2023/06/22 09:36:32;;;;;;;14.65;9.40;;;;;;;31.02;77.37;98996.56;4484512;31;20143;-67
2023/06/22 09:39:01;;;;;;;13.25;9.00;;;;;;;31.17;78.60;98993.09;4480491;31;20097;-67
2023/06/22 09:41:28;;;;;;;13.70;9.40;;;;;;;30.88;66.28;98993.53;4474586;31;20509;-67
2023/06/22 09:43:56;;;;;;;12.68;8.90;;;;;;;31.07;66.34;98995.78;4478221;32;20155;-67
2023/06/22 09:46:25;;;;;;;16.52;9.52;;;;;;;31.18;67.17;98985.81;4480011;32;20165;-67
2023/06/22 09:48:52;;;;;;;13.50;9.93;;;;;;;31.34;68.83;98989.34;4481523;31;20119;-67
2023/06/22 09:51:21;;;;;;;17.77;9.63;;;;;;;31.31;69.68;98980.69;4475550;32;20114;-67
2023/06/22 09:53:53;;;;;;;15.60;8.77;;;;;;;31.25;66.51;98978.22;4480900;32;20088;-67
2023/06/22 09:56:21;;;;;;;13.32;8.68;;;;;;;31.44;67.70;98982.03;4480191;31;20570;-67
2023/06/22 09:58:50;;;;;;;14.55;9.10;;;;;;;31.49;65.70;98987.47;4482902;31;20109;-67
2023/06/22 10:01:18;;;;;;;14.00;9.85;;;;;;;31.07;64.87;98996.59;4477439;31;20096;-67
2023/06/22 10:03:46;;;;;;;14.93;9.52;;;;;;;31.12;61.47;98984.97;4471179;32;20116;-67
2023/06/22 10:06:13;;;;;;;13.80;8.95;;;;;;;31.10;65.58;98984.44;4482127;32;20383;-69
2023/06/22 10:08:40;;;;;;;14.63;9.93;;;;;;;31.31;66.51;98977.16;4482357;31;20092;-68
2023/06/22 10:11:08;;;;;;;14.23;9.07;;;;;;;31.22;65.08;98976.88;4482113;32;20453;-67
2023/06/22 10:13:35;;;;;;;12.98;9.02;;;;;;;31.21;65.65;98980.66;4473682;32;20106;-67
2023/06/22 10:16:02;;;;;;;14.55;9.25;;;;;;;31.24;64.03;98982.84;4480774;32;20135;-67
2023/06/22 10:18:30;;;;;;;12.40;9.35;;;;;;;31.52;67.12;98977.19;4481082;32;20563;-67
2023/06/22 10:20:57;;;;;;;15.50;9.35;;;;;;;31.99;68.94;98974.22;4474363;31;20151;-67
2023/06/22 10:23:24;;;;;;;11.30;8.85;;;;;;;32.26;66.89;98975.78;4479299;32;20152;-67
2023/06/22 10:25:52;;;;;;;19.77;10.50;;;;;;;32.34;60.57;98975.25;4483799;32;20119;-67
2023/06/22 10:28:19;;;;;;;12.75;9.13;;;;;;;32.53;69.21;98980.06;4483547;31;20111;-68
2023/06/22 10:30:46;;;;;;;11.95;9.52;;;;;;;32.52;65.42;98975.72;4482863;31;20131;-69
2023/06/22 10:33:14;;;;;;;13.10;9.20;;;;;;;32.77;67.79;98974.03;4472949;32;20116;-68
2023/06/22 10:35:41;;;;;;;15.23;9.30;;;;;;;32.74;65.76;98980.03;4472814;32;20105;-68
2023/06/22 10:38:08;;;;;;;13.62;9.20;;;;;;;32.61;62.47;98970.53;4482412;31;20115;-69
2023/06/22 10:40:36;;;;;;;11.15;9.50;;;;;;;32.40;60.63;98967.09;4483873;32;20161;-67
2023/06/22 10:43:03;;;;;;;13.38;10.25;;;;;;;32.28;57.84;98970.94;4473086;31;20111;-68
2023/06/22 10:45:30;;;;;;;11.88;8.52;;;;;;;32.08;56.59;98971.72;4484344;32;20167;-66
2023/06/22 10:47:57;;;;;;;13.10;8.95;;;;;;;32.30;59.25;98968.75;4482109;32;20130;-67
2023/06/22 10:50:25;;;;;;;15.27;9.02;;;;;;;32.52;63.68;98964.87;4469220;32;20166;-67
2023/06/22 10:52:54;;;;;;;14.93;9.45;;;;;;;32.74;57.92;98963.75;4482788;31;20116;-67
2023/06/22 10:55:24;;;;;;;17.17;9.43;;;;;;;32.83;59.40;98962.06;4471185;31;20160;-66
2023/06/22 10:57:52;;;;;;;15.60;9.40;;;;;;;32.98;57.85;98963.87;4468906;32;20093;-67
2023/06/22 11:00:19;;;;;;;14.32;9.57;;;;;;;32.80;54.95;98962.63;4468141;32;20489;-68
2023/06/22 11:02:47;;;;;;;13.88;8.77;;;;;;;32.93;55.56;98966.63;4474011;32;20189;-67
2023/06/22 11:05:14;;;;;;;17.10;9.55;;;;;;;33.02;64.63;98968.47;4469482;32;20168;-67
2023/06/22 11:07:43;;;;;;;13.32;8.52;;;;;;;32.65;60.03;98972.44;4476415;31;20128;-67
2023/06/22 11:10:15;;;;;;;13.65;9.90;;;;;;;32.83;61.89;98967.50;4477490;32;20156;-67
2023/06/22 11:12:43;;;;;;;10.85;9.15;;;;;;;32.61;60.87;98968.62;4480838;31;20108;-67
2023/06/22 11:15:10;;;;;;;13.62;9.70;;;;;;;32.77;55.92;98960.47;4467721;32;20473;-67
2023/06/22 11:17:38;;;;;;;13.25;9.20;;;;;;;32.78;53.37;98962.06;4469037;32;20096;-67
2023/06/22 11:20:10;;;;;;;10.95;8.32;;;;;;;32.98;54.56;98964.69;4477590;32;20093;-67
2023/06/22 11:22:39;;;;;;;13.57;8.45;;;;;;;33.20;55.17;98958.06;4482540;31;20145;-67
2023/06/22 11:25:07;;;;;;;13.30;9.90;;;;;;;32.65;52.26;98949.91;4484725;31;20502;-67
2023/06/22 11:27:37;;;;;;;12.15;8.45;;;;;;;32.77;53.38;98946.91;4480813;31;20155;-67